Time;durP1;ratioP1;P1;durP2;ratioP2;P2;SDS_P1;SDS_P2;PMS_P1;PMS_P2;Temp;Humidity;BMP_temperature;BMP_pressure;BME280_temperature;BME280_humidity;BME280_pressure;Samples;Min_cycle;Max_cycle;Signal;HPM_P1;HPM_P2
2022/03/30 00:01:26;;;;;;;18.08;14.02;;;;;;;11.21;nan;97572.50;5013377;28;20034;-60
2022/03/30 00:03:51;;;;;;;23.95;14.85;;;;;;;11.23;nan;97570.72;5012635;28;20041;-60
2022/03/30 00:06:17;;;;;;;20.92;14.77;;;;;;;11.23;nan;97569.88;5015771;28;20026;-60
2022/03/30 00:08:43;;;;;;;19.80;12.80;;;;;;;11.13;nan;97550.59;5017152;28;20030;-60
2022/03/30 00:11:10;;;;;;;22.23;13.65;;;;;;;11.12;nan;97560.03;5012503;28;20088;-60
2022/03/30 00:13:36;;;;;;;19.13;12.13;;;;;;;11.14;nan;97563.38;5015118;28;20033;-60
2022/03/30 00:16:03;;;;;;;21.40;12.68;;;;;;;11.05;nan;97550.91;5017196;28;20033;-61
2022/03/30 00:18:29;;;;;;;24.48;14.38;;;;;;;11.05;nan;97555.19;5015693;28;20736;-59
2022/03/30 00:20:55;;;;;;;19.27;12.10;;;;;;;11.00;nan;97553.63;5011092;28;20134;-60
2022/03/30 00:23:20;;;;;;;21.38;13.88;;;;;;;11.02;nan;97555.31;5012584;28;20033;-60
2022/03/30 00:25:46;;;;;;;22.85;14.80;;;;;;;11.00;nan;97560.50;5014913;28;20037;-60
2022/03/30 00:28:11;;;;;;;22.33;15.73;;;;;;;11.01;nan;97551.91;5013858;28;20030;-60
2022/03/30 00:30:37;;;;;;;22.00;14.02;;;;;;;11.01;nan;97544.22;5011367;28;20033;-60
2022/03/30 00:33:02;;;;;;;24.83;13.75;;;;;;;11.09;nan;97544.75;5013511;28;20029;-61
2022/03/30 00:35:28;;;;;;;29.33;14.20;;;;;;;11.13;nan;97558.28;5015390;28;20036;-60
2022/03/30 00:37:53;;;;;;;29.20;14.57;;;;;;;11.13;nan;97556.56;5021165;28;20557;-60
2022/03/30 00:40:18;;;;;;;24.58;14.60;;;;;;;11.02;nan;97547.63;5011566;28;20022;-61
2022/03/30 00:42:45;;;;;;;19.85;12.55;;;;;;;10.85;nan;97541.41;5012742;28;20595;-61
2022/03/30 00:45:14;;;;;;;26.33;15.32;;;;;;;10.83;nan;97539.78;5016334;28;20042;-61
2022/03/30 00:47:40;;;;;;;21.40;13.57;;;;;;;10.88;nan;97564.34;5012579;28;20522;-61
2022/03/30 00:50:08;;;;;;;25.20;14.60;;;;;;;10.86;nan;97557.63;5011847;28;20484;-61
2022/03/30 00:52:34;;;;;;;25.50;14.52;;;;;;;10.80;nan;97556.13;5014078;28;20454;-61
2022/03/30 00:55:00;;;;;;;25.83;13.00;;;;;;;10.77;nan;97552.84;5015911;28;20116;-61
2022/03/30 00:57:27;;;;;;;19.13;12.77;;;;;;;10.71;nan;97542.78;5012495;28;20583;-61
2022/03/30 00:59:53;;;;;;;21.17;13.60;;;;;;;10.60;nan;97550.91;5011903;28;20045;-60
2022/03/30 01:02:20;;;;;;;21.73;14.20;;;;;;;10.65;nan;97555.84;5013606;28;20030;-60
2022/03/30 01:04:46;;;;;;;22.53;14.07;;;;;;;10.66;nan;97548.09;5015610;28;20399;-60
2022/03/30 01:07:13;;;;;;;20.20;12.60;;;;;;;10.57;nan;97550.97;5010178;28;20029;-61
2022/03/30 01:09:38;;;;;;;19.37;12.10;;;;;;;10.57;nan;97552.72;5012577;28;20046;-61
2022/03/30 01:12:04;;;;;;;23.75;12.38;;;;;;;10.52;nan;97553.72;5015908;28;20034;-60
2022/03/30 01:14:31;;;;;;;19.33;13.63;;;;;;;10.52;nan;97553.72;5013996;28;20423;-60
2022/03/30 01:16:57;;;;;;;20.90;13.73;;;;;;;10.34;nan;97526.22;5012812;28;20379;-60
2022/03/30 01:19:28;;;;;;;22.10;13.35;;;;;;;10.41;nan;97544.75;5012300;28;20046;-60
2022/03/30 01:21:54;;;;;;;20.17;12.27;;;;;;;10.34;nan;97554.38;5013966;28;20026;-64
2022/03/30 01:24:19;;;;;;;20.35;12.85;;;;;;;10.28;nan;97544.34;5013338;28;20033;-61
2022/03/30 01:26:45;;;;;;;30.90;13.63;;;;;;;10.16;nan;97524.28;5010127;28;20029;-60
2022/03/30 01:34:41;;;;;;;16.40;11.20;;;;;;;10.09;nan;97533.06;5011092;28;19920;-61
2022/03/30 01:37:08;;;;;;;20.15;11.52;;;;;;;10.05;nan;97536.59;5009909;28;20558;-60
2022/03/30 01:39:34;;;;;;;18.70;11.90;;;;;;;9.91;nan;97519.16;5013582;28;20037;-61
2022/03/30 01:41:59;;;;;;;16.30;10.30;;;;;;;9.86;nan;97512.50;5014786;28;20018;-61
2022/03/30 01:44:25;;;;;;;20.27;11.50;;;;;;;9.94;nan;97529.28;5011490;28;20384;-60
2022/03/30 01:46:53;;;;;;;21.13;11.97;;;;;;;9.90;nan;97526.88;5009861;28;20395;-61
2022/03/30 01:49:22;;;;;;;19.63;13.10;;;;;;;9.88;nan;97524.38;5012618;28;20081;-61
2022/03/30 01:51:49;;;;;;;18.73;11.93;;;;;;;9.91;nan;97529.38;5012874;28;20087;-60
2022/03/30 01:54:22;;;;;;;22.17;12.97;;;;;;;9.82;nan;97510.94;5009681;28;20037;-61
2022/03/30 01:56:50;;;;;;;21.27;13.27;;;;;;;9.86;nan;97521.03;5011975;28;20022;-60
2022/03/30 01:59:17;;;;;;;20.40;12.63;;;;;;;9.80;nan;97522.97;5014349;28;20040;-60
2022/03/30 02:01:42;;;;;;;17.63;12.43;;;;;;;9.64;nan;97515.78;5012889;28;20463;-63
2022/03/30 02:04:08;;;;;;;20.80;12.63;;;;;;;9.69;nan;97520.75;5010449;28;20034;-61
2022/03/30 02:06:35;;;;;;;21.63;12.40;;;;;;;9.60;nan;97508.25;5013426;28;20124;-61
2022/03/30 02:09:00;;;;;;;18.93;12.17;;;;;;;9.62;nan;97520.13;5016694;28;20026;-62
2022/03/30 02:11:26;;;;;;;22.03;12.80;;;;;;;9.49;nan;97506.06;5015323;28;20052;-62
2022/03/30 02:13:52;;;;;;;20.80;12.07;;;;;;;9.47;nan;97512.94;5011650;28;20029;-63
2022/03/30 02:16:18;;;;;;;22.70;12.83;;;;;;;9.46;nan;97520.69;5015032;28;20038;-61
2022/03/30 02:18:44;;;;;;;21.07;12.57;;;;;;;9.41;nan;97523.38;5016504;28;20033;-61
2022/03/30 02:21:09;;;;;;;18.27;11.97;;;;;;;9.34;nan;97524.44;5015309;28;20095;-61
2022/03/30 02:23:35;;;;;;;20.27;11.90;;;;;;;9.25;nan;97511.94;5011804;28;20032;-61
2022/03/30 02:26:00;;;;;;;18.70;11.30;;;;;;;9.09;nan;97501.38;5011667;28;20034;-60
2022/03/30 02:28:25;;;;;;;19.73;12.33;;;;;;;9.09;nan;97515.88;5013051;28;20113;-61
2022/03/30 02:30:51;;;;;;;25.30;12.80;;;;;;;8.99;nan;97494.06;5011521;28;20106;-60
2022/03/30 02:33:16;;;;;;;23.33;13.30;;;;;;;9.02;nan;97510.13;5010969;28;20036;-61
2022/03/30 02:35:42;;;;;;;24.53;12.03;;;;;;;8.96;nan;97509.47;5013330;28;20660;-61
2022/03/30 02:38:07;;;;;;;20.87;13.33;;;;;;;8.89;nan;97502.88;5013509;28;20113;-61
2022/03/30 02:40:33;;;;;;;19.97;13.53;;;;;;;8.74;nan;97491.41;5011236;28;20030;-60
2022/03/30 02:42:58;;;;;;;17.23;12.53;;;;;;;8.67;nan;97487.34;5009167;28;20037;-59
2022/03/30 02:45:23;;;;;;;17.27;12.17;;;;;;;8.69;nan;97508.59;5012115;28;20505;-59
2022/03/30 02:50:33;;;;;;;19.87;11.37;;;;;;;8.44;nan;97485.50;5010199;28;20340;-60
2022/03/30 02:52:58;;;;;;;19.03;12.43;;;;;;;8.45;nan;97493.97;5010939;28;20041;-61
2022/03/30 02:55:24;;;;;;;21.83;13.27;;;;;;;8.43;nan;97498.28;5013974;28;20122;-61
2022/03/30 02:57:49;;;;;;;18.17;11.67;;;;;;;8.39;nan;97499.25;5012860;28;20038;-60
2022/03/30 03:00:15;;;;;;;20.73;13.60;;;;;;;8.25;nan;97486.84;5009215;28;20037;-61
2022/03/30 03:02:41;;;;;;;19.23;12.17;;;;;;;8.27;nan;97485.09;5009971;28;20061;-61
2022/03/30 03:05:07;;;;;;;22.07;13.53;;;;;;;8.33;nan;97496.88;5012556;28;20113;-60
2022/03/30 03:07:32;;;;;;;20.27;12.63;;;;;;;8.34;nan;97498.56;5012079;28;20574;-60
2022/03/30 03:09:58;;;;;;;24.40;13.70;;;;;;;8.25;nan;97494.50;5008849;28;20167;-61
2022/03/30 03:12:23;;;;;;;27.07;13.57;;;;;;;8.26;nan;97493.63;5010227;28;20033;-61
2022/03/30 03:14:48;;;;;;;21.57;13.87;;;;;;;8.17;nan;97499.00;5013589;28;20120;-61
2022/03/30 03:17:14;;;;;;;24.37;14.60;;;;;;;8.21;nan;97480.16;5011045;28;20034;-59
2022/03/30 03:19:41;;;;;;;19.57;13.60;;;;;;;8.09;nan;97468.56;5008932;28;20353;-60
2022/03/30 03:22:07;;;;;;;23.13;14.67;;;;;;;8.10;nan;97475.38;5011189;28;20124;-60
2022/03/30 03:24:32;;;;;;;22.07;13.50;;;;;;;7.99;nan;97469.69;5012704;28;20033;-63
2022/03/30 03:26:59;;;;;;;23.13;13.83;;;;;;;7.97;nan;97484.22;5010553;28;20765;-60
2022/03/30 03:29:25;;;;;;;19.97;13.03;;;;;;;7.96;nan;97489.38;5009310;28;20049;-59
2022/03/30 03:31:51;;;;;;;26.00;17.67;;;;;;;7.87;nan;97487.91;5010414;28;20483;-60
2022/03/30 03:34:16;;;;;;;24.57;16.23;;;;;;;7.81;nan;97488.88;5011038;28;20112;-59
2022/03/30 03:36:42;;;;;;;24.17;15.17;;;;;;;7.78;nan;97483.88;5011165;28;20470;-60
2022/03/30 03:39:07;;;;;;;25.70;14.83;;;;;;;7.75;nan;97493.31;5009857;28;20281;-60
2022/03/30 03:41:32;;;;;;;20.40;13.87;;;;;;;7.68;nan;97484.16;5013293;28;20476;-61
2022/03/30 03:43:58;;;;;;;25.77;14.77;;;;;;;7.54;nan;97470.94;5010197;28;20060;-60
2022/03/30 03:46:23;;;;;;;22.10;14.47;;;;;;;7.67;nan;97479.94;5011077;28;20377;-61
2022/03/30 03:48:49;;;;;;;23.10;14.77;;;;;;;7.65;nan;97474.03;5007362;28;20053;-60
2022/03/30 03:51:14;;;;;;;24.60;14.20;;;;;;;7.50;nan;97464.22;5014552;28;20026;-61
2022/03/30 03:53:40;;;;;;;22.37;14.63;;;;;;;7.49;nan;97473.59;5012294;28;20129;-62
2022/03/30 03:56:05;;;;;;;20.93;13.67;;;;;;;7.51;nan;97473.56;5008890;28;20033;-61
2022/03/30 03:58:31;;;;;;;22.03;14.93;;;;;;;7.56;nan;97481.91;5009074;28;20115;-61
2022/03/30 04:00:56;;;;;;;20.13;13.83;;;;;;;7.42;nan;97478.88;5012103;28;20465;-61
2022/03/30 04:03:22;;;;;;;18.73;12.97;;;;;;;7.27;nan;97475.00;5012330;28;20037;-61
2022/03/30 04:05:47;;;;;;;23.17;13.50;;;;;;;7.43;nan;97490.75;5007705;28;20697;-62
2022/03/30 04:08:13;;;;;;;20.77;12.77;;;;;;;7.34;nan;97471.44;5011123;28;20448;-63
2022/03/30 04:10:39;;;;;;;21.93;13.53;;;;;;;7.19;nan;97464.16;5016223;28;20163;-63
2022/03/30 04:13:06;;;;;;;21.20;13.70;;;;;;;7.35;nan;97488.38;5013184;28;20036;-60
2022/03/30 04:15:32;;;;;;;23.90;12.83;;;;;;;7.28;nan;97484.31;5008799;28;20029;-60
2022/03/30 04:17:57;;;;;;;24.17;13.33;;;;;;;7.22;nan;97492.09;5014123;28;20029;-60
2022/03/30 04:20:23;;;;;;;23.47;14.63;;;;;;;7.26;nan;97481.78;5016638;28;20040;-60
2022/03/30 04:22:48;;;;;;;18.07;12.73;;;;;;;7.15;nan;97473.59;5014059;28;20107;-61
2022/03/30 04:25:14;;;;;;;20.57;13.47;;;;;;;7.24;nan;97480.16;5012249;28;20063;-60
2022/03/30 04:27:47;;;;;;;20.53;12.73;;;;;;;7.11;nan;97461.78;5014890;28;20030;-60
2022/03/30 04:30:14;;;;;;;25.60;15.50;;;;;;;7.17;nan;97463.38;5017976;28;20057;-60
2022/03/30 04:32:39;;;;;;;27.67;13.47;;;;;;;7.08;nan;97479.72;5016967;28;20063;-62
2022/03/30 04:35:05;;;;;;;23.37;12.70;;;;;;;6.88;nan;97466.56;5014838;28;20073;-60
2022/03/30 04:37:31;;;;;;;23.07;13.50;;;;;;;6.96;nan;97479.97;5015899;28;20033;-61
2022/03/30 04:39:56;;;;;;;20.50;12.23;;;;;;;6.88;nan;97482.69;5016478;28;20037;-61
2022/03/30 04:42:21;;;;;;;24.53;14.23;;;;;;;6.82;nan;97482.84;5013788;28;20059;-61
2022/03/30 04:44:47;;;;;;;23.20;13.17;;;;;;;6.68;nan;97468.75;5010401;28;20026;-60
2022/03/30 04:47:13;;;;;;;25.17;13.67;;;;;;;6.68;nan;97477.22;5014095;28;20160;-60
2022/03/30 04:49:38;;;;;;;22.93;13.07;;;;;;;6.63;nan;97473.94;5014850;28;20054;-60
2022/03/30 04:52:04;;;;;;;24.00;13.73;;;;;;;6.71;nan;97489.03;5013136;28;20034;-61
2022/03/30 04:54:29;;;;;;;19.60;12.67;;;;;;;6.64;nan;97478.16;5011394;28;20069;-60
2022/03/30 04:56:55;;;;;;;24.10;11.70;;;;;;;6.67;nan;97472.16;5014887;28;20076;-61
2022/03/30 04:59:20;;;;;;;24.53;12.97;;;;;;;6.76;nan;97482.97;5015567;28;20037;-60
2022/03/30 05:01:46;;;;;;;22.17;12.83;;;;;;;6.71;nan;97478.84;5012101;28;20034;-60
2022/03/30 05:04:11;;;;;;;27.20;13.27;;;;;;;6.81;nan;97495.63;5011213;28;20038;-59
2022/03/30 05:06:36;;;;;;;25.73;13.43;;;;;;;6.83;nan;97483.69;5017115;28;20097;-61
2022/03/30 05:09:02;;;;;;;20.23;12.00;;;;;;;6.92;nan;97478.38;5014703;28;20357;-60
2022/03/30 05:11:28;;;;;;;22.87;12.93;;;;;;;6.99;nan;97485.03;5011721;28;20033;-59
2022/03/30 05:13:53;;;;;;;27.97;14.67;;;;;;;7.05;nan;97492.50;5012099;28;20029;-60
2022/03/30 05:16:19;;;;;;;23.67;13.17;;;;;;;7.01;nan;97462.03;5015365;28;20032;-60
2022/03/30 05:18:44;;;;;;;33.27;14.77;;;;;;;7.18;nan;97486.25;5014584;28;20069;-64
2022/03/30 05:21:10;;;;;;;29.70;14.10;;;;;;;7.12;nan;97468.56;5011387;28;20463;-61
2022/03/30 05:23:36;;;;;;;26.30;13.90;;;;;;;7.32;nan;97480.81;5011764;28;20320;-60
2022/03/30 05:26:03;;;;;;;25.07;13.90;;;;;;;7.37;nan;97473.06;5012657;28;20034;-61
2022/03/30 05:28:28;;;;;;;26.17;14.83;;;;;;;7.39;nan;97474.69;5014935;28;20116;-60
2022/03/30 05:30:54;;;;;;;43.47;16.37;;;;;;;7.47;nan;97475.31;5010931;28;20037;-61
2022/03/30 05:33:19;;;;;;;26.60;13.33;;;;;;;7.49;nan;97465.09;5014754;28;20048;-61
2022/03/30 05:35:44;;;;;;;28.77;14.00;;;;;;;7.48;nan;97454.06;5015426;28;20065;-61
2022/03/30 05:38:10;;;;;;;38.73;16.23;;;;;;;7.58;nan;97477.63;5012217;28;20036;-61
2022/03/30 05:40:35;;;;;;;34.20;14.80;;;;;;;7.51;nan;97461.63;5009658;28;20494;-60
2022/03/30 05:43:01;;;;;;;30.60;14.20;;;;;;;7.64;nan;97475.72;5012977;28;20108;-60
2022/03/30 05:45:26;;;;;;;27.30;14.13;;;;;;;7.66;nan;97475.72;5012942;28;20402;-61
2022/03/30 05:47:52;;;;;;;25.50;14.87;;;;;;;7.72;nan;97473.00;5012663;28;20563;-60
2022/03/30 05:50:18;;;;;;;25.50;14.93;;;;;;;7.79;nan;97454.94;5011355;28;20076;-60
2022/03/30 05:52:43;;;;;;;28.17;13.70;;;;;;;7.95;nan;97468.09;5013993;28;20030;-60
2022/03/30 05:55:09;;;;;;;27.60;14.33;;;;;;;8.07;nan;97457.56;5013788;28;20557;-60
2022/03/30 05:57:35;;;;;;;36.73;17.60;;;;;;;8.15;nan;97447.97;5009948;28;20025;-61
2022/03/30 06:00:00;;;;;;;22.53;15.63;;;;;;;8.27;nan;97452.72;5010030;28;20030;-60
2022/03/30 06:02:26;;;;;;;24.47;15.20;;;;;;;8.19;nan;97446.16;5013777;28;20041;-60
2022/03/30 06:04:53;;;;;;;24.40;14.23;;;;;;;8.38;nan;97455.00;5013939;28;20033;-60
2022/03/30 06:07:19;;;;;;;23.37;15.27;;;;;;;8.28;nan;97451.84;5009283;28;20037;-60
2022/03/30 06:09:45;;;;;;;23.73;13.73;;;;;;;8.20;nan;97433.38;5009393;28;20140;-60
2022/03/30 06:12:11;;;;;;;22.87;13.67;;;;;;;8.19;nan;97431.69;5014796;28;20110;-60
2022/03/30 06:14:37;;;;;;;23.43;14.83;;;;;;;8.34;nan;97452.59;5012982;28;20065;-60
2022/03/30 06:17:04;;;;;;;24.40;14.57;;;;;;;8.44;nan;97448.91;5011642;28;20034;-60
2022/03/30 06:19:31;;;;;;;29.83;15.77;;;;;;;8.59;nan;97449.25;5010636;28;20045;-62
2022/03/30 06:21:57;;;;;;;23.63;14.67;;;;;;;8.61;nan;97437.28;5013609;28;20040;-61
2022/03/30 06:24:23;;;;;;;26.77;17.00;;;;;;;8.76;nan;97435.13;5013768;28;20025;-61
2022/03/30 06:26:48;;;;;;;26.43;14.67;;;;;;;8.96;nan;97443.00;5009872;28;20066;-61
2022/03/30 06:29:14;;;;;;;24.60;15.90;;;;;;;9.07;nan;97439.25;4996410;28;20079;-61
2022/03/30 06:31:40;;;;;;;25.50;14.80;;;;;;;9.18;nan;97454.22;5013763;28;20152;-61
2022/03/30 06:34:05;;;;;;;26.70;16.03;;;;;;;9.39;nan;97455.25;5012019;28;20037;-60
2022/03/30 06:36:33;;;;;;;23.70;15.40;;;;;;;9.59;nan;97453.69;5009926;28;20495;-60
2022/03/30 06:38:59;;;;;;;24.33;14.83;;;;;;;9.47;nan;97443.03;5011743;28;20490;-60
2022/03/30 06:41:25;;;;;;;26.37;15.57;;;;;;;9.39;nan;97434.78;5013530;28;20151;-60
2022/03/30 06:43:51;;;;;;;29.83;15.40;;;;;;;9.54;nan;97445.34;5011810;28;20022;-61
2022/03/30 06:46:18;;;;;;;23.63;14.70;;;;;;;9.75;nan;97461.69;5009779;28;20440;-61
2022/03/30 06:48:45;;;;;;;21.83;14.67;;;;;;;9.97;nan;97459.22;5011942;28;20119;-60
2022/03/30 06:51:12;;;;;;;25.03;15.33;;;;;;;10.16;nan;97460.25;5013091;28;20092;-61
2022/03/30 06:53:37;;;;;;;23.43;15.27;;;;;;;10.35;nan;97458.72;5013182;28;20449;-60
2022/03/30 06:56:03;;;;;;;20.03;15.17;;;;;;;10.50;nan;97442.75;5011354;28;20120;-61
2022/03/30 06:58:28;;;;;;;23.35;15.13;;;;;;;10.80;nan;97455.28;5012508;28;20036;-61
2022/03/30 07:00:56;;;;;;;24.60;16.77;;;;;;;10.98;nan;97447.72;5013248;28;20026;-60
2022/03/30 07:03:26;;;;;;;21.97;15.23;;;;;;;11.13;nan;97458.25;5007981;28;20641;-61
2022/03/30 07:05:51;;;;;;;25.23;16.13;;;;;;;11.18;nan;97446.94;5011147;28;20036;-60
2022/03/30 07:11:00;;;;;;;26.15;16.92;;;;;;;11.56;nan;97452.22;5014121;28;20040;-61
2022/03/30 07:13:25;;;;;;;25.35;15.63;;;;;;;11.80;nan;97464.03;5009735;28;20029;-60
2022/03/30 07:15:51;;;;;;;20.20;14.90;;;;;;;11.97;nan;97451.31;5009080;28;20447;-61
2022/03/30 07:18:16;;;;;;;26.92;16.42;;;;;;;12.11;nan;97445.56;5011881;28;20518;-60
2022/03/30 07:20:42;;;;;;;24.88;17.85;;;;;;;12.29;nan;97455.88;5013763;28;20025;-61
2022/03/30 07:23:10;;;;;;;24.25;16.52;;;;;;;12.42;nan;97450.19;5010453;28;20026;-60
2022/03/30 07:25:36;;;;;;;26.30;16.20;;;;;;;12.44;nan;97443.22;5009006;28;20455;-60
2022/03/30 07:28:03;;;;;;;27.02;16.38;;;;;;;12.69;nan;97452.31;5010953;28;20121;-60
2022/03/30 07:30:29;;;;;;;28.80;19.33;;;;;;;12.78;nan;97441.59;5011946;28;20022;-61
2022/03/30 07:32:58;;;;;;;34.17;15.77;;;;;;;12.83;nan;97441.41;5009098;28;20119;-60
2022/03/30 07:35:27;;;;;;;24.65;15.48;;;;;;;12.97;nan;97456.19;5012254;28;20447;-60
2022/03/30 07:37:53;;;;;;;23.55;17.45;;;;;;;13.10;nan;97467.56;5011288;28;20281;-61
2022/03/30 07:40:21;;;;;;;23.77;17.42;;;;;;;13.08;nan;97449.63;5012530;28;20068;-61
2022/03/30 07:42:48;;;;;;;30.92;19.50;;;;;;;13.19;nan;97462.00;5009628;28;20456;-61
2022/03/30 07:45:15;;;;;;;26.23;17.92;;;;;;;13.22;nan;97449.81;5011729;28;20030;-59
2022/03/30 07:47:41;;;;;;;26.33;17.25;;;;;;;13.37;nan;97458.53;5011794;28;20045;-60
2022/03/30 07:50:07;;;;;;;25.45;17.95;;;;;;;13.45;nan;97461.56;5013520;28;20054;-60
2022/03/30 07:52:32;;;;;;;25.13;17.35;;;;;;;13.49;nan;97445.06;5011986;28;20485;-60
2022/03/30 07:54:58;;;;;;;23.73;16.00;;;;;;;13.80;nan;97469.28;5014706;28;20387;-59
2022/03/30 07:57:26;;;;;;;25.10;18.60;;;;;;;13.88;nan;97456.84;5017150;28;20070;-60
2022/03/30 08:00:00;;;;;;;28.17;17.42;;;;;;;13.67;nan;97446.72;5017591;28;20040;-58
2022/03/30 08:02:27;;;;;;;26.65;18.88;;;;;;;13.68;nan;97434.66;5016382;28;20115;-58
2022/03/30 08:04:54;;;;;;;23.35;16.67;;;;;;;13.83;nan;97453.69;5016073;28;20828;-58
2022/03/30 08:07:19;;;;;;;26.48;19.90;;;;;;;14.00;nan;97459.63;5015319;28;20033;-57
2022/03/30 08:09:45;;;;;;;25.85;18.10;;;;;;;14.02;nan;97457.81;5012872;28;20061;-58
2022/03/30 08:12:11;;;;;;;27.92;18.33;;;;;;;14.21;nan;97439.66;5013196;28;20048;-57
2022/03/30 08:14:38;;;;;;;28.88;17.90;;;;;;;14.36;nan;97428.53;5016777;28;20057;-58
2022/03/30 08:17:05;;;;;;;27.25;19.00;;;;;;;14.39;nan;97430.94;5015303;28;20072;-57
2022/03/30 08:19:30;;;;;;;24.33;17.92;;;;;;;14.45;nan;97440.97;5012117;28;20044;-57
2022/03/30 08:24:40;;;;;;;24.55;17.50;;;;;;;14.28;nan;97419.53;5014948;28;20049;-58
2022/03/30 08:27:05;;;;;;;28.48;18.45;;;;;;;14.42;nan;97435.13;5014822;28;20037;-59
2022/03/30 08:29:31;;;;;;;24.00;17.60;;;;;;;14.52;nan;97428.56;5012488;28;20068;-59
2022/03/30 08:31:57;;;;;;;24.65;19.85;;;;;;;14.36;nan;97412.25;5014325;28;20116;-58
2022/03/30 08:34:23;;;;;;;27.33;18.00;;;;;;;14.71;nan;97428.41;5014704;28;20607;-57
2022/03/30 08:36:49;;;;;;;26.27;18.23;;;;;;;14.80;nan;97425.31;5014634;28;20022;-58
2022/03/30 08:39:14;;;;;;;22.23;16.40;;;;;;;14.98;nan;97425.09;5011533;28;20616;-57
2022/03/30 08:41:45;;;;;;;22.08;17.40;;;;;;;15.13;nan;97433.75;5015285;28;20055;-58
2022/03/30 08:44:14;;;;;;;29.63;18.20;;;;;;;15.23;nan;97414.25;5015658;28;20055;-58
2022/03/30 08:46:41;;;;;;;28.25;18.52;;;;;;;15.31;nan;97424.13;5012637;28;20039;-58
2022/03/30 08:49:07;;;;;;;25.73;17.13;;;;;;;15.34;nan;97413.63;5012268;28;20563;-61
2022/03/30 08:51:37;;;;;;;24.17;16.30;;;;;;;15.33;nan;97410.22;5015260;28;20382;-58
2022/03/30 08:54:03;;;;;;;28.13;17.83;;;;;;;15.30;nan;97409.56;5012983;28;20030;-57
2022/03/30 08:56:30;;;;;;;32.55;19.77;;;;;;;15.21;nan;97410.06;5012315;28;20483;-58
2022/03/30 08:59:10;;;;;;;29.85;16.80;;;;;;;15.26;nan;97402.91;5011595;28;20038;-57
2022/03/30 09:01:39;;;;;;;24.85;18.33;;;;;;;15.34;nan;97411.03;5014186;28;20033;-59
2022/03/30 09:04:11;;;;;;;29.15;17.83;;;;;;;15.50;nan;97417.00;5012589;28;20029;-59
2022/03/30 09:06:47;;;;;;;27.20;16.48;;;;;;;15.73;nan;97406.19;5011399;28;20605;-60
2022/03/30 09:09:15;;;;;;;31.80;18.15;;;;;;;15.74;nan;97388.94;5013464;28;20033;-58
2022/03/30 09:11:53;;;;;;;27.73;17.48;;;;;;;15.83;nan;97390.94;5015937;28;20034;-58
2022/03/30 09:14:20;;;;;;;25.23;17.88;;;;;;;15.64;nan;97391.22;5015963;28;20044;-61
2022/03/30 09:16:51;;;;;;;27.55;19.08;;;;;;;15.39;nan;97389.22;5013244;28;20030;-61
2022/03/30 09:19:18;;;;;;;27.60;17.00;;;;;;;15.41;nan;97382.19;5012949;28;20049;-61
2022/03/30 09:21:49;;;;;;;26.67;18.75;;;;;;;15.62;nan;97387.88;5012745;28;20057;-61
2022/03/30 09:24:21;;;;;;;19.75;16.17;;;;;;;15.67;nan;97388.44;5010679;28;20606;-61
2022/03/30 09:26:50;;;;;;;23.83;17.13;;;;;;;15.70;nan;97377.09;5009908;28;20152;-60
2022/03/30 09:29:18;;;;;;;23.52;17.55;;;;;;;15.93;nan;97382.56;5014586;28;20072;-60
2022/03/30 09:31:45;;;;;;;30.30;18.40;;;;;;;16.13;nan;97378.75;5012322;28;20038;-60
2022/03/30 09:34:11;;;;;;;30.60;20.15;;;;;;;15.88;nan;97370.81;5010568;28;20061;-61
2022/03/30 09:36:40;;;;;;;24.23;16.77;;;;;;;16.05;nan;97378.38;5010441;28;20159;-61
2022/03/30 09:39:08;;;;;;;75.38;42.05;;;;;;;16.10;nan;97366.00;5014290;28;20033;-62
2022/03/30 09:41:51;;;;;;;27.92;19.65;;;;;;;15.83;nan;97353.00;5014380;28;20177;-60
2022/03/30 09:44:18;;;;;;;27.27;18.73;;;;;;;16.14;nan;97358.88;5009888;28;20311;-61
2022/03/30 09:47:10;;;;;;;27.35;18.67;;;;;;;16.14;nan;97351.13;5011325;28;20487;-61
2022/03/30 09:49:41;;;;;;;25.33;18.38;;;;;;;16.23;nan;97356.56;5012618;28;20132;-61
2022/03/30 09:52:23;;;;;;;29.90;19.25;;;;;;;16.19;nan;97349.09;5012679;28;20033;-61
2022/03/30 09:54:54;;;;;;;25.50;17.13;;;;;;;16.24;nan;97347.91;5010949;28;20120;-60
2022/03/30 09:57:23;;;;;;;26.80;18.42;;;;;;;16.37;nan;97335.03;5014503;28;20052;-60
2022/03/30 09:59:58;;;;;;;25.13;17.45;;;;;;;16.49;nan;97325.66;5013588;28;20033;-60
2022/03/30 10:02:25;;;;;;;28.73;18.83;;;;;;;16.51;nan;97329.00;5010174;28;20044;-60
2022/03/30 10:04:51;;;;;;;24.73;18.08;;;;;;;16.31;nan;97325.06;5009109;28;20357;-60
2022/03/30 10:07:17;;;;;;;29.35;18.50;;;;;;;16.38;nan;97319.38;5012003;28;20598;-61
2022/03/30 10:09:43;;;;;;;23.67;18.13;;;;;;;16.78;nan;97322.06;5008955;28;20060;-61
2022/03/30 10:12:09;;;;;;;24.23;17.42;;;;;;;16.76;nan;97305.81;5010553;28;20033;-61
2022/03/30 10:14:39;;;;;;;30.27;19.42;;;;;;;16.79;nan;97305.59;5010301;28;20040;-61
2022/03/30 10:17:05;;;;;;;28.73;18.90;;;;;;;16.85;nan;97313.78;5013942;28;20076;-61
2022/03/30 10:19:30;;;;;;;25.73;19.98;;;;;;;16.73;nan;97306.81;5011196;28;20136;-62
2022/03/30 12:16:46;;;;;;;17.65;13.10;;;;;;;17.82;nan;97093.81;4992463;28;20069;-57
2022/03/30 12:19:16;;;;;;;18.33;13.32;;;;;;;17.85;nan;97082.41;4994826;28;20500;-58
2022/03/30 12:21:42;;;;;;;19.77;14.52;;;;;;;17.87;nan;97090.88;4967635;28;20565;-58
2022/03/30 12:24:11;;;;;;;18.98;13.15;;;;;;;17.64;nan;97080.44;4958672;28;20043;-57
2022/03/30 12:26:36;;;;;;;19.13;14.00;;;;;;;17.65;nan;97083.84;4957728;28;20587;-59
2022/03/30 12:29:07;;;;;;;18.08;13.45;;;;;;;17.53;nan;97080.31;4952791;28;20047;-59
2022/03/30 12:31:41;;;;;;;21.02;14.20;;;;;;;17.76;nan;97078.69;4953511;28;20130;-59
2022/03/30 12:34:15;;;;;;;18.27;13.63;;;;;;;17.58;nan;97067.06;4965173;28;20042;-59
2022/03/30 12:36:46;;;;;;;16.90;14.55;;;;;;;17.77;nan;97070.00;4964724;28;20107;-59
2022/03/30 12:39:40;;;;;;;16.83;13.82;;;;;;;17.42;nan;97050.94;4969529;28;20034;-60
2022/03/30 12:42:12;;;;;;;16.52;13.48;;;;;;;17.49;nan;97058.16;4962932;28;20137;-58
2022/03/30 12:44:46;;;;;;;19.90;14.68;;;;;;;17.50;nan;97043.44;4957959;28;20345;-59
2022/03/30 12:47:25;;;;;;;18.23;13.35;;;;;;;17.47;nan;97041.91;4972622;28;20034;-59
2022/03/30 12:49:52;;;;;;;19.02;13.85;;;;;;;17.60;nan;97041.88;4974731;28;20039;-59
2022/03/30 12:52:18;;;;;;;16.88;13.55;;;;;;;17.39;nan;97033.84;4974745;28;20034;-60
2022/03/30 12:58:14;;;;;;;17.92;14.43;;;;;;;17.25;nan;97031.41;4980011;28;20536;-60
2022/03/30 13:00:48;;;;;;;20.48;13.65;;;;;;;17.29;nan;97028.50;4975129;28;20057;-60
2022/03/30 13:03:36;;;;;;;19.67;13.77;;;;;;;17.18;nan;97019.84;4973293;28;20097;-60
2022/03/30 13:06:17;;;;;;;22.17;14.43;;;;;;;17.15;nan;97005.34;4979199;28;20117;-59
2022/03/30 13:08:43;;;;;;;20.58;14.13;;;;;;;17.20;nan;97000.66;4971930;28;20039;-60
2022/03/30 13:11:08;;;;;;;21.20;15.52;;;;;;;17.19;nan;96996.41;4972362;28;20034;-60
2022/03/30 13:13:36;;;;;;;20.02;15.32;;;;;;;17.32;nan;97001.53;4970140;28;20062;-60
2022/03/30 13:16:05;;;;;;;27.58;16.83;;;;;;;17.21;nan;97001.50;4970690;28;20039;-60
2022/03/30 13:18:31;;;;;;;21.27;14.25;;;;;;;17.12;nan;97000.38;4972189;28;20241;-60
2022/03/30 13:21:00;;;;;;;22.88;14.95;;;;;;;16.99;nan;96988.41;4973141;28;20108;-61
2022/03/30 13:23:49;;;;;;;26.38;17.13;;;;;;;17.05;nan;96988.81;4973306;28;20098;-60
2022/03/30 13:26:33;;;;;;;18.85;14.18;;;;;;;16.90;nan;96977.78;4971351;28;20435;-61
2022/03/30 13:28:59;;;;;;;18.95;13.35;;;;;;;16.78;nan;96978.66;4971954;28;20038;-60
2022/03/30 13:31:25;;;;;;;17.13;13.65;;;;;;;16.90;nan;96967.41;4974077;28;20069;-59
2022/03/30 13:33:53;;;;;;;16.70;13.90;;;;;;;16.90;nan;96982.94;4970832;28;20373;-61
2022/03/30 13:36:19;;;;;;;17.38;15.02;;;;;;;16.95;nan;96974.88;4971259;28;20078;-59
2022/03/30 13:38:46;;;;;;;19.70;13.77;;;;;;;17.10;nan;96975.53;4974151;28;20034;-59
2022/03/30 13:41:13;;;;;;;20.67;14.55;;;;;;;17.17;nan;96966.41;4974432;28;20026;-60
2022/03/30 13:43:38;;;;;;;20.10;14.95;;;;;;;17.05;nan;96947.38;4970282;28;20056;-60
2022/03/30 13:46:04;;;;;;;29.30;14.45;;;;;;;17.19;nan;96951.56;4970890;28;20414;-60
2022/03/30 13:48:30;;;;;;;16.85;11.85;;;;;;;17.19;nan;96947.19;4970722;28;20108;-59